Station: Windorah  

  Atmospheric Gas Attenuation - ITU Rec 676-11   ----------------- dB/100km -----------------
Date Time Temp RH % AH g/m3 Dew Point Wind Direction Speed kph Gust kph Barometer mB Rainfall Since 9am 24GHz 47GHz 76GHz 122GHz 134GHz 241GHz
08/05 12:30 19.4 20 3.34 -4.1 26 37 1024.1 0 8.3 17.5 19.8 50.8 33.7 111.6
08/05 12:20 19.3 20 3.32 -4.2 22 28 1024.1 0 8.3 17.5 19.7 50.7 33.5 111.0
08/05 12:10 18.9 21 3.4 -3.9 22 30 1024.3 0 8.5 17.7 20.1 51.6 34.5 114.4
08/05 12:00 18.1 21 3.24 -4.5 24 35 1024.6 0 8.1 17.6 19.8 50.8 33.2 109.8
08/05 11:50 18.3 21 3.28 -4.4 20 32 1024.7 0 8.2 17.6 19.9 51.0 33.5 111.0
08/05 11:40 18.2 23 3.57 -3.2 20 26 1024.9 0 8.8 18.0 20.8 53.5 36.5 121.6
08/05 11:30 17.7 22 3.32 -4.3 26 33 1025.1 0 8.3 17.8 20.1 51.8 34.2 113.2
08/05 11:20 17.4 23 3.41 -3.9 26 32 1025.3 0 8.5 18.0 20.5 52.7 35.2 116.9
08/05 11:10 16.9 24 3.45 -3.8 22 26 1025.5 0 8.6 18.1 20.8 53.4 35.9 119.1
08/05 11:00 16.8 24 3.43 -3.9 24 35 1025.5 0 8.6 18.1 20.7 53.3 35.7 118.5
08/05 10:50 16.4 24 3.35 -4.2 28 30 1025.8 0 8.4 18.1 20.6 52.9 35.1 116.2
08/05 10:40 16.2 25 3.45 -3.8 28 33 1025.9 0 8.6 18.3 20.9 53.9 36.2 120.2
08/05 10:30 16.1 26 3.56 -3.4 28 39 1025.8 0 8.9 18.4 21.3 54.8 37.4 124.4
08/05 10:20 16.2 25 3.45 -3.8 30 35 1025.6 0 8.6 18.3 20.9 53.8 36.2 120.1
08/05 10:10 15.7 26 3.48 -3.7 32 37 1025.7 0 8.7 18.4 21.2 54.4 36.7 122.0
08/05 10:00 15.9 26 3.52 -3.6 28 43 1025.8 0 8.8 18.4 21.2 54.6 37.1 123.2
08/05 09:50 15.8 26 3.5 -3.6 20 26 1025.8 0 8.7 18.4 21.2 54.5 36.9 122.6
08/05 09:40 15.2 27 3.5 -3.6 26 35 1025.7 0 8.8 18.5 21.3 54.9 37.2 123.5
08/05 09:30 14.7 27 3.4 -4.1 30 41 1025.7 0 8.6 18.5 21.1 54.4 36.3 120.4
08/05 09:20 14.5 28 3.48 -3.8 33 37 1025.7 0 8.7 18.6 21.5 55.2 37.3 123.7
08/05 09:10 14.3 29 3.56 -3.5 30 37 1025.7 0 8.9 18.8 21.8 56.0 38.2 127.1
08/05 09:00 14.1 29 3.52 -3.6 26 39 1025.7 0 8.8 18.8 21.7 55.8 37.9 125.8
08/05 08:50 13.9 30 3.6 -3.4 22 30 1025.8 0 9.0 18.9 22.0 56.7 38.8 129.2
08/05 08:40 13.7 31 3.67 -3.1 24 28 1025.8 0 9.2 19.1 22.3 57.4 39.7 132.2
08/05 08:30 13.6 31 3.65 -3.2 22 33 1025.7 0 9.1 19.1 22.2 57.3 39.5 131.6
08/05 08:20 13.2 32 3.67 -3.1 22 26 1025.5 0 9.2 19.2 22.4 57.8 39.9 133.0
08/05 08:10 12.8 33 3.7 -3 17 19 1025.5 0 9.2 19.3 22.6 58.3 40.5 134.8
08/05 08:00 12.5 33 3.63 -3.3 19 26 1025.5 0 9.1 19.2 22.5 57.9 39.8 132.6
08/05 07:50 12.3 34 3.69 -3.1 19 22 1025.2 0 9.2 19.4 22.7 58.6 40.6 135.2
08/05 07:40 12 35 3.73 -3 17 19 1025 0 9.3 19.5 22.9 59.1 41.2 137.2
08/05 07:30 11.6 36 3.74 -2.9 15 20 1025 0 9.4 19.6 23.1 59.5 41.5 138.3
08/05 07:20 11.3 36 3.67 -3.2 15 17 1024.8 0 9.2 19.5 22.9 59.1 40.9 136.0
08/05 07:10 11.1 37 3.73 -3 13 17 1024.8 0 9.4 19.6 23.2 59.8 41.6 138.7
08/05 07:00 11.2 36 3.65 -3.3 13 20 1025 0 9.2 19.5 22.9 59.0 40.7 135.4
08/05 06:50 11.4 36 3.7 -3.1 13 17 1024.7 0 9.3 19.5 23.0 59.3 41.1 137.0
08/05 06:40 11.3 37 3.77 -2.8 15 20 1024.5 0 9.4 19.7 23.2 60.0 42.0 139.9
08/05 06:30 11.4 36 3.7 -3.1 17 22 1024.3 0 9.3 19.5 23.0 59.2 41.1 137.0
08/05 06:20 11.6 36 3.74 -2.9 19 22 1023.9 0 9.4 19.5 23.0 59.4 41.5 138.2
08/05 06:10 11.6 36 3.74 -2.9 17 20 1023.8 0 9.4 19.5 23.0 59.4 41.5 138.2
08/05 06:00 11.6 36 3.74 -2.9 17 22 1023.9 0 9.4 19.5 23.0 59.4 41.5 138.2
08/05 05:50 11.7 36 3.77 -2.9 17 20 1023.6 0 9.4 19.5 23.1 59.6 41.7 139.1
08/05 05:40 11.9 36 3.81 -2.7 19 20 1023.6 0 9.5 19.6 23.2 59.8 42.1 140.4
08/05 05:30 11.9 36 3.81 -2.7 19 26 1023.6 0 9.5 19.6 23.2 59.8 42.1 140.4
08/05 05:20 12 36 3.84 -2.6 17 22 1023.5 0 9.6 19.6 23.2 60.0 42.4 141.4
08/05 05:10 12.2 36 3.89 -2.4 19 20 1023.4 0 9.7 19.6 23.4 60.3 42.8 143.0
08/05 05:00 12.2 37 3.99 -2 17 26 1023.5 0 9.9 19.7 23.7 61.2 43.9 147.0
08/05 04:50 12.3 37 4.02 -2 19 24 1023.2 0 9.9 19.7 23.8 61.4 44.2 148.0
08/05 04:40 12.3 38 4.13 -1.6 19 24 1023.1 0 10.2 19.9 24.1 62.4 45.5 152.3
08/05 04:30 12.4 38 4.15 -1.5 15 20 1023 0 10.2 19.9 24.2 62.5 45.6 152.9
08/05 04:20 12.4 38 4.15 -1.5 17 20 1022.9 0 10.2 19.9 24.2 62.5 45.6 152.9
08/05 04:10 12.6 38 4.2 -1.3 17 20 1022.8 0 10.3 19.9 24.3 62.8 46.1 154.5
08/05 04:00 12.8 38 4.26 -1.1 17 26 1023 0 10.4 20.0 24.4 63.2 46.6 156.6
08/05 03:50 13 38 4.31 -1 19 20 1023.1 0 10.5 20.0 24.5 63.5 47.1 158.2
08/05 03:40 13.2 38 4.36 -0.8 17 19 1023.1 0 10.6 20.0 24.7 63.8 47.5 159.8
08/05 03:30 13.3 38 4.39 -0.7 17 28 1023 0 10.7 20.0 24.7 64.0 47.8 160.8
08/05 03:20 13.4 38 4.42 -0.6 15 17 1023 0 10.7 20.1 24.8 64.2 48.1 161.8
08/05 03:10 13.7 38 4.5 -0.3 24 32 1023 0 10.9 20.1 25.0 64.7 48.8 164.4
08/05 03:00 13.8 39 4.65 0.1 20 26 1023.1 0 11.2 20.3 25.5 66.0 50.5 170.2
08/05 02:50 13.8 40 4.77 0.5 17 24 1022.9 0 11.5 20.5 25.9 67.1 51.8 175.0
08/05 02:40 14 41 4.95 1 20 24 1022.8 0 11.8 20.7 26.4 68.6 53.8 181.8
08/05 02:30 14.1 43 5.22 1.7 19 28 1023 0 12.4 21.0 27.4 71.0 56.8 192.6
08/05 02:20 14.5 41 5.1 1.4 20 24 1022.9 0 12.1 20.8 26.8 69.6 55.1 186.7
08/05 02:10 14.8 41 5.19 1.7 24 30 1022.9 0 12.3 20.8 27.0 70.1 56.0 189.7
08/05 02:00 14.6 47 5.88 3.4 20 33 1022.9 0 13.8 21.9 29.5 76.8 64.2 218.5
08/05 01:50 14.8 51 6.46 4.8 22 24 1022.8 0 15.0 22.7 31.5 82.3 70.9 242.3
08/05 01:40 14.7 53 6.67 5.2 17 20 1022.9 0 15.4 23.0 32.4 84.4 73.6 251.6
08/05 01:30 14.9 52 6.63 5.1 17 24 1022.9 0 15.3 22.9 32.1 83.8 72.9 249.2
08/05 01:20 15.2 52 6.75 5.4 19 20 1022.9 0 15.6 23.0 32.5 84.7 74.1 253.4
08/05 01:10 15.4 51 6.7 5.3 22 28 1023 0 15.5 22.9 32.2 84.0 73.3 250.7
08/05 01:00 15.7 51 6.82 5.6 22 33 1023.1 0 15.7 23.0 32.5 84.9 74.5 254.9
08/05 00:50 15.8 51 6.86 5.7 28 33 1023 0 15.8 23.0 32.6 85.2 74.9 256.2
08/05 00:40 15.8 51 6.86 5.7 19 24 1022.9 0 15.8 23.0 32.6 85.2 74.9 256.2
08/05 00:30 16 51 6.95 5.9 22 28 1023.1 0 16.0 23.1 32.9 85.8 75.8 259.4
08/05 00:20 16.2 50 6.89 5.8 22 28 1023.1 0 15.8 23.0 32.6 85.0 74.9 256.3
08/05 00:10 16.3 50 6.94 5.9 28 33 1023.1 0 15.9 23.0 32.7 85.4 75.4 258.1
08/05 00:00 16.4 49 6.84 5.7 20 32 1023.2 0 15.7 22.8 32.3 84.4 74.1 253.5
07/05 23:50 16.4 49 6.84 5.7 19 20 1023.1 0 15.7 22.8 32.3 84.3 74.1 253.5
07/05 23:40 16.3 50 6.94 5.9 24 30 1023.1 0 15.9 23.0 32.7 85.4 75.4 258.1
07/05 23:30 15.5 52 6.87 5.7 15 22 1023.3 0 15.8 23.1 32.8 85.6 75.3 257.7
07/05 23:20 15.6 52 6.92 5.8 11 13 1023.1 0 15.9 23.2 32.9 86.0 75.8 259.5
07/05 23:10 16.4 49 6.84 5.7 13 19 1023 0 15.7 22.8 32.3 84.3 74.1 253.5
07/05 23:00 16.4 48 6.7 5.4 17 22 1023.1 0 15.4 22.6 31.8 83.0 72.4 247.6
07/05 22:50 16.2 49 6.76 5.5 19 22 1022.9 0 15.6 22.8 32.1 83.8 73.3 250.7
07/05 22:40 15.8 49 6.6 5.1 15 17 1022.8 0 15.2 22.6 31.7 82.6 71.7 245.2
07/05 22:30 15.7 50 6.69 5.3 13 17 1023 0 15.4 22.8 32.0 83.6 72.9 249.3
07/05 22:20 15.6 50 6.65 5.2 13 13 1022.9 0 15.4 22.7 31.9 83.3 72.5 247.9
07/05 22:10 15.6 50 6.65 5.2 13 17 1022.9 0 15.4 22.7 31.9 83.3 72.5 247.9
07/05 22:00 15.3 50 6.53 5 13 17 1023 0 15.1 22.6 31.6 82.5 71.4 243.8
07/05 21:50 15.2 51 6.62 5.1 13 13 1022.8 0 15.3 22.8 32.0 83.4 72.5 247.9
07/05 21:40 15.1 51 6.58 5 11 11 1022.7 0 15.2 22.8 31.9 83.1 72.1 246.4
07/05 21:30 15 52 6.67 5.2 11 13 1022.7 0 15.4 22.9 32.2 84.1 73.3 250.6
07/05 21:20 15.2 51 6.62 5.1 9 11 1022.7 0 15.3 22.8 32.0 83.4 72.5 247.8
07/05 21:10 15.3 51 6.66 5.2 11 11 1022.5 0 15.4 22.8 32.1 83.7 72.9 249.2
07/05 21:00 15.6 49 6.52 4.9 11 13 1022.5 0 15.1 22.5 31.4 82.0 70.9 242.4
07/05 20:50 16 48 6.54 5 9 13 1022.5 0 15.1 22.5 31.4 81.8 70.8 242.0
07/05 20:40 16.2 47 6.48 4.9 11 13 1022.4 0 15.0 22.3 31.1 81.0 69.9 238.9
07/05 20:30 16.3 46 6.38 4.7 13 15 1022.4 0 14.8 22.2 30.7 79.9 68.7 234.4
07/05 20:20 16.3 46 6.38 4.7 11 13 1022.3 0 14.8 22.2 30.7 79.9 68.6 234.4
07/05 20:10 16.3 47 6.52 5 11 13 1022.3 0 15.1 22.4 31.2 81.3 70.3 240.2
07/05 20:00 16.5 46 6.46 4.9 11 15 1022.1 0 14.9 22.2 30.9 80.5 69.4 237.1

Last Refresh: 08-May-2026 12:09:25

Bureau of Meteorology